createdAt,value
2017-10-11T00:00:23.297Z,0
2017-10-11T00:01:32.139Z,0
2017-10-11T00:02:40.980Z,0
2017-10-11T00:03:49.819Z,0
2017-10-11T00:04:58.658Z,0
2017-10-11T00:06:07.491Z,0
2017-10-11T00:07:16.336Z,0
2017-10-11T00:08:25.177Z,0
2017-10-11T00:09:34.014Z,0
2017-10-11T00:10:42.852Z,0
2017-10-11T00:11:51.696Z,0
2017-10-11T00:13:00.532Z,0
2017-10-11T00:14:09.381Z,0
2017-10-11T00:15:18.225Z,0
2017-10-11T00:16:27.058Z,0
2017-10-11T00:17:35.895Z,0
2017-10-11T00:18:44.740Z,0
2017-10-11T00:19:53.581Z,0
2017-10-11T00:21:02.422Z,0
2017-10-11T00:22:11.261Z,0
2017-10-11T00:23:20.098Z,0
2017-10-11T00:24:28.936Z,0
2017-10-11T00:25:37.775Z,0
2017-10-11T00:26:46.945Z,0
2017-10-11T00:27:55.791Z,0
2017-10-11T00:29:04.629Z,0
2017-10-11T00:30:13.472Z,0
2017-10-11T00:31:22.646Z,0
2017-10-11T00:32:31.487Z,0
2017-10-11T00:33:40.323Z,0
2017-10-11T00:34:49.160Z,0
2017-10-11T00:35:57.999Z,0
2017-10-11T00:37:06.839Z,0
2017-10-11T00:38:15.674Z,0
2017-10-11T00:39:24.513Z,0
2017-10-11T00:40:33.353Z,0
2017-10-11T00:41:42.194Z,0
2017-10-11T00:42:51.035Z,0
2017-10-11T00:43:59.873Z,0
2017-10-11T00:45:08.707Z,0
2017-10-11T00:46:17.545Z,0
2017-10-11T00:47:26.386Z,0
2017-10-11T00:48:35.226Z,0
2017-10-11T00:49:44.072Z,0
2017-10-11T00:50:52.905Z,0
2017-10-11T00:52:01.743Z,0
2017-10-11T00:53:10.585Z,0
2017-10-11T00:54:19.424Z,0
2017-10-11T00:55:28.257Z,0
2017-10-11T00:56:37.105Z,0
2017-10-11T00:57:45.942Z,0
2017-10-11T00:58:54.794Z,0
2017-10-11T01:00:03.617Z,0
2017-10-11T01:01:12.449Z,0
2017-10-11T01:02:21.299Z,0
2017-10-11T01:03:30.132Z,0
2017-10-11T01:04:38.972Z,0
2017-10-11T01:05:47.813Z,0
2017-10-11T01:06:56.655Z,0
2017-10-11T01:08:05.824Z,0
2017-10-11T01:09:14.665Z,0
2017-10-11T01:10:23.504Z,0
2017-10-11T01:11:32.341Z,0
2017-10-11T01:12:41.188Z,0
2017-10-11T01:13:50.027Z,0
2017-10-11T01:14:58.869Z,0
2017-10-11T01:16:07.710Z,0
2017-10-11T01:17:16.552Z,0
2017-10-11T01:18:25.392Z,0
2017-10-11T01:19:34.232Z,0
2017-10-11T01:20:43.068Z,0
2017-10-11T01:21:51.905Z,0
2017-10-11T01:23:00.748Z,0
2017-10-11T01:24:09.583Z,0
2017-10-11T01:25:18.428Z,0
2017-10-11T01:26:27.265Z,0
2017-10-11T01:27:36.103Z,0
2017-10-11T01:28:44.946Z,0
2017-10-11T01:29:53.778Z,0
2017-10-11T01:31:02.622Z,0
2017-10-11T01:32:11.463Z,0
2017-10-11T01:33:20.302Z,0
2017-10-11T01:34:29.137Z,0
2017-10-11T01:35:38.313Z,0
2017-10-11T01:36:47.152Z,0
2017-10-11T01:37:56.334Z,0
2017-10-11T01:39:05.171Z,0
2017-10-11T01:40:14.018Z,0
2017-10-11T01:41:22.852Z,0
2017-10-11T01:42:31.689Z,0
2017-10-11T01:43:40.529Z,0
2017-10-11T01:44:49.379Z,0
2017-10-11T01:45:58.211Z,0
2017-10-11T01:47:07.054Z,0
2017-10-11T01:48:15.890Z,0
2017-10-11T01:49:24.728Z,0
2017-10-11T01:50:33.900Z,0
2017-10-11T01:51:42.749Z,0
2017-10-11T01:52:51.583Z,0
2017-10-11T01:54:00.427Z,0
2017-10-11T01:55:09.594Z,0
2017-10-11T01:56:18.427Z,0
2017-10-11T01:57:27.272Z,0
2017-10-11T01:58:36.111Z,0
2017-10-11T01:59:44.949Z,0
2017-10-11T02:00:53.787Z,0
2017-10-11T02:02:02.628Z,0
2017-10-11T02:03:11.459Z,0
2017-10-11T02:04:20.648Z,0
2017-10-11T02:05:29.484Z,0
2017-10-11T02:06:38.323Z,0
2017-10-11T02:07:47.163Z,0
2017-10-11T02:08:56.002Z,0
2017-10-11T02:10:04.838Z,0
2017-10-11T02:11:13.683Z,0
2017-10-11T02:12:22.858Z,0
2017-10-11T02:13:32.035Z,0
2017-10-11T02:14:40.874Z,0
2017-10-11T02:15:49.713Z,0
2017-10-11T02:16:58.551Z,0
2017-10-11T02:18:07.746Z,0
2017-10-11T02:19:16.571Z,0
2017-10-11T02:20:25.410Z,0
2017-10-11T02:21:34.247Z,0
2017-10-11T02:22:43.097Z,0
2017-10-11T02:23:51.928Z,0
2017-10-11T02:25:00.769Z,0
2017-10-11T02:26:09.616Z,0
2017-10-11T02:27:18.790Z,0
2017-10-11T02:28:27.628Z,0
2017-10-11T02:29:36.466Z,0
2017-10-11T02:30:45.307Z,0
2017-10-11T02:31:54.150Z,0
2017-10-11T02:33:02.988Z,0
2017-10-11T02:34:11.825Z,0
2017-10-11T02:35:20.665Z,0
2017-10-11T02:36:29.524Z,0
2017-10-11T02:37:38.349Z,0
2017-10-11T02:38:47.195Z,0
2017-10-11T02:39:56.029Z,0
2017-10-11T02:41:04.875Z,0
2017-10-11T02:42:13.707Z,0
2017-10-11T02:43:22.545Z,0
2017-10-11T02:44:31.395Z,0
2017-10-11T02:45:40.220Z,0
2017-10-11T02:46:49.061Z,0
2017-10-11T02:47:57.901Z,0
2017-10-11T02:49:06.740Z,0
2017-10-11T02:50:15.576Z,0
2017-10-11T02:51:24.419Z,0
2017-10-11T02:52:33.255Z,0
2017-10-11T02:53:42.098Z,0
2017-10-11T02:54:50.943Z,0
2017-10-11T02:55:59.772Z,0
2017-10-11T02:57:08.614Z,0
2017-10-11T02:58:17.450Z,0
2017-10-11T02:59:26.290Z,0
2017-10-11T03:00:35.126Z,0
2017-10-11T03:01:43.962Z,0
2017-10-11T03:02:52.801Z,0
2017-10-11T03:04:01.649Z,0
2017-10-11T03:05:10.827Z,0
2017-10-11T03:06:19.664Z,0
2017-10-11T03:07:28.843Z,0
2017-10-11T03:08:37.684Z,0
2017-10-11T03:09:46.526Z,0
2017-10-11T03:10:55.362Z,0
2017-10-11T03:12:04.199Z,0
2017-10-11T03:13:13.040Z,0
2017-10-11T03:14:21.879Z,0
2017-10-11T03:15:30.719Z,0
2017-10-11T03:16:39.560Z,0
2017-10-11T03:17:48.398Z,0
2017-10-11T03:18:57.237Z,0
2017-10-11T03:20:06.083Z,0
2017-10-11T03:21:14.918Z,0
2017-10-11T03:22:23.759Z,0
2017-10-11T03:23:32.597Z,0
2017-10-11T03:24:41.439Z,0
2017-10-11T03:25:50.280Z,0
2017-10-11T03:26:59.117Z,0
2017-10-11T03:28:07.948Z,0
2017-10-11T03:29:16.787Z,0
2017-10-11T03:30:25.631Z,0
2017-10-11T03:31:34.464Z,0
2017-10-11T03:32:43.306Z,0
2017-10-11T03:33:52.143Z,0
2017-10-11T03:35:01.313Z,0
2017-10-11T03:36:10.154Z,0
2017-10-11T03:37:18.991Z,0
2017-10-11T03:38:27.836Z,0
2017-10-11T03:39:37.020Z,0
2017-10-11T03:40:46.200Z,0
2017-10-11T03:41:55.039Z,0
2017-10-11T03:43:03.888Z,0
2017-10-11T03:44:12.721Z,0
2017-10-11T03:45:21.559Z,0
2017-10-11T03:46:30.393Z,0
2017-10-11T03:47:39.225Z,0
2017-10-11T03:48:48.059Z,0
2017-10-11T03:49:56.893Z,0
2017-10-11T03:51:05.730Z,0
2017-10-11T03:52:14.558Z,0
2017-10-11T03:53:23.392Z,0
2017-10-11T03:54:32.230Z,0
2017-10-11T03:55:41.066Z,0
2017-10-11T03:56:49.899Z,0
2017-10-11T03:57:58.730Z,0
2017-10-11T03:59:07.561Z,0
2017-10-11T04:00:16.401Z,0
2017-10-11T04:01:25.237Z,0
2017-10-11T04:02:34.075Z,0
2017-10-11T04:03:43.241Z,0
2017-10-11T04:04:52.075Z,0
2017-10-11T04:06:00.915Z,0
2017-10-11T04:07:09.752Z,0
2017-10-11T04:08:18.582Z,0
2017-10-11T04:09:27.419Z,0
2017-10-11T04:10:36.250Z,0
2017-10-11T04:11:45.087Z,0
2017-10-11T04:12:53.921Z,0
2017-10-11T04:14:02.755Z,0
2017-10-11T04:15:11.587Z,0
2017-10-11T04:16:20.424Z,0
2017-10-11T04:17:29.264Z,0
2017-10-11T04:18:38.092Z,0
2017-10-11T04:19:46.926Z,0
2017-10-11T04:20:55.757Z,0
2017-10-11T04:22:04.593Z,0
2017-10-11T04:23:13.427Z,0
2017-10-11T04:24:22.259Z,0
2017-10-11T04:25:31.092Z,0
2017-10-11T04:26:39.925Z,0
2017-10-11T04:27:48.758Z,0
2017-10-11T04:28:57.592Z,0
2017-10-11T04:30:06.432Z,0
2017-10-11T04:31:15.265Z,0
2017-10-11T04:32:24.098Z,0
2017-10-11T04:33:32.937Z,0
2017-10-11T04:34:41.769Z,0
2017-10-11T04:35:50.602Z,0
2017-10-11T04:36:59.439Z,0
2017-10-11T04:38:08.607Z,0
2017-10-11T04:39:17.442Z,0
2017-10-11T04:40:26.279Z,0
2017-10-11T04:41:35.459Z,0
2017-10-11T04:42:44.288Z,0
2017-10-11T04:43:53.126Z,0
2017-10-11T04:45:02.290Z,0
2017-10-11T04:46:11.128Z,0
2017-10-11T04:47:19.961Z,0
2017-10-11T04:48:28.804Z,0
2017-10-11T04:49:37.639Z,0
2017-10-11T04:50:46.805Z,0
2017-10-11T04:51:55.637Z,0
2017-10-11T04:53:04.477Z,0
2017-10-11T04:54:13.311Z,0
2017-10-11T04:55:22.147Z,0
2017-10-11T04:56:30.983Z,0
2017-10-11T04:57:39.821Z,0
2017-10-11T04:58:48.650Z,0
2017-10-11T04:59:57.485Z,0
2017-10-11T05:01:06.315Z,0
2017-10-11T05:02:15.486Z,0
2017-10-11T05:03:24.321Z,0
2017-10-11T05:04:33.152Z,0
2017-10-11T05:05:41.988Z,0
2017-10-11T05:06:50.820Z,0
2017-10-11T05:07:59.657Z,0
2017-10-11T05:09:08.488Z,4
2017-10-11T05:10:17.322Z,4
2017-10-11T05:11:26.165Z,4
2017-10-11T05:12:34.989Z,0
2017-10-11T05:13:43.825Z,4
2017-10-11T05:14:52.653Z,4
2017-10-11T05:16:01.489Z,8
2017-10-11T05:17:10.321Z,4
2017-10-11T05:18:19.155Z,8
2017-10-11T05:19:27.988Z,8
2017-10-11T05:20:36.824Z,8
2017-10-11T05:21:45.658Z,12
2017-10-11T05:22:54.492Z,8
2017-10-11T05:24:03.324Z,12
2017-10-11T05:25:12.212Z,12
2017-10-11T05:26:21.045Z,12
2017-10-11T05:27:29.882Z,16
2017-10-11T05:28:38.710Z,16
2017-10-11T05:29:47.544Z,16
2017-10-11T05:30:56.380Z,20
2017-10-11T05:32:05.219Z,20
2017-10-11T05:33:14.054Z,20
2017-10-11T05:34:22.889Z,24
2017-10-11T05:35:31.722Z,28
2017-10-11T05:36:40.552Z,28
2017-10-11T05:37:49.393Z,24
2017-10-11T05:38:58.224Z,24
2017-10-11T05:40:07.055Z,28
2017-10-11T05:41:16.231Z,40
2017-10-11T05:42:25.060Z,36
2017-10-11T05:43:33.895Z,36
2017-10-11T05:44:42.729Z,44
2017-10-11T05:45:51.567Z,44
2017-10-11T05:47:00.735Z,48
2017-10-11T05:48:09.564Z,48
2017-10-11T05:49:18.399Z,68
2017-10-11T05:50:27.235Z,76
2017-10-11T05:51:36.074Z,88
2017-10-11T05:52:44.910Z,100
2017-10-11T05:53:53.739Z,104
2017-10-11T05:55:02.569Z,100
2017-10-11T05:56:11.406Z,104
2017-10-11T05:57:20.240Z,104
2017-10-11T05:58:29.075Z,108
2017-10-11T05:59:37.915Z,112
2017-10-11T06:00:47.088Z,112
2017-10-11T06:01:55.920Z,120
2017-10-11T06:03:04.762Z,128
2017-10-11T06:04:13.591Z,152
2017-10-11T06:05:22.433Z,140
2017-10-11T06:06:31.266Z,156
2017-10-11T06:07:40.097Z,168
2017-10-11T06:08:48.937Z,188
2017-10-11T06:09:57.773Z,188
2017-10-11T06:11:06.605Z,160
2017-10-11T06:12:15.442Z,120
2017-10-11T06:13:24.280Z,156
2017-10-11T06:14:33.443Z,172
2017-10-11T06:15:42.278Z,204
2017-10-11T06:16:51.120Z,216
2017-10-11T06:17:59.950Z,212
2017-10-11T06:19:08.793Z,208
2017-10-11T06:20:17.619Z,256
2017-10-11T06:21:26.824Z,228
2017-10-11T06:22:35.660Z,260
2017-10-11T06:23:44.494Z,260
2017-10-11T06:24:53.325Z,252
2017-10-11T06:26:02.159Z,256
2017-10-11T06:27:10.995Z,236
2017-10-11T06:28:19.828Z,240
2017-10-11T06:29:28.664Z,220
2017-10-11T06:30:37.499Z,220
2017-10-11T06:31:46.335Z,276
2017-10-11T06:32:55.168Z,264
2017-10-11T06:34:04.004Z,264
2017-10-11T06:35:13.174Z,320
2017-10-11T06:36:22.006Z,292
2017-10-11T06:37:30.838Z,332
2017-10-11T06:38:40.013Z,340
2017-10-11T06:39:48.849Z,436
2017-10-11T06:40:57.686Z,492
2017-10-11T06:42:06.519Z,548
2017-10-11T06:43:15.353Z,540
2017-10-11T06:44:24.185Z,532
2017-10-11T06:45:33.026Z,380
2017-10-11T06:46:41.862Z,228
2017-10-11T06:47:51.029Z,212
2017-10-11T06:48:59.864Z,288
2017-10-11T06:50:08.690Z,280
2017-10-11T06:51:17.531Z,388
2017-10-11T06:52:26.370Z,640
2017-10-11T06:53:35.204Z,744
2017-10-11T06:54:44.038Z,704
2017-10-11T06:55:52.875Z,636
2017-10-11T06:57:01.716Z,684
2017-10-11T06:58:10.550Z,788
2017-10-11T06:59:19.382Z,788
2017-10-11T07:00:28.213Z,768
2017-10-11T07:01:37.047Z,700
2017-10-11T07:02:45.883Z,620
2017-10-11T07:03:54.718Z,592
2017-10-11T07:05:03.549Z,580
2017-10-11T07:06:12.380Z,604
2017-10-11T07:07:21.218Z,576
2017-10-11T07:08:30.056Z,532
2017-10-11T07:09:38.890Z,504
2017-10-11T07:10:47.720Z,472
2017-10-11T07:11:56.553Z,464
2017-10-11T07:13:05.389Z,448
2017-10-11T07:14:14.231Z,436
2017-10-11T07:15:23.071Z,464
2017-10-11T07:16:31.903Z,416
2017-10-11T07:17:40.740Z,416
2017-10-11T07:18:49.576Z,420
2017-10-11T07:19:58.416Z,364
2017-10-11T07:21:07.247Z,492
2017-10-11T07:22:16.089Z,384
2017-10-11T07:23:24.912Z,320
2017-10-11T07:24:33.755Z,268
2017-10-11T07:25:42.583Z,320
2017-10-11T07:26:51.423Z,304
2017-10-11T07:28:00.253Z,400
2017-10-11T07:29:09.093Z,408
2017-10-11T07:30:17.925Z,528
2017-10-11T07:31:26.764Z,488
2017-10-11T07:32:35.595Z,456
2017-10-11T07:33:44.427Z,360
2017-10-11T07:34:53.262Z,444
2017-10-11T07:36:02.096Z,368
2017-10-11T07:37:10.931Z,428
2017-10-11T07:38:19.766Z,452
2017-10-11T07:39:28.603Z,436
2017-10-11T07:40:37.436Z,520
2017-10-11T07:41:46.268Z,484
2017-10-11T07:42:55.109Z,728
2017-10-11T07:44:04.279Z,732
2017-10-11T07:45:13.118Z,696
2017-10-11T07:46:21.959Z,864
2017-10-11T07:47:30.792Z,1196
2017-10-11T07:48:39.964Z,1120
2017-10-11T07:49:48.804Z,1244
2017-10-11T07:50:57.631Z,1464
2017-10-11T07:52:06.466Z,1320
2017-10-11T07:53:15.307Z,1304
2017-10-11T07:54:24.135Z,1000
2017-10-11T07:55:32.969Z,1148
2017-10-11T07:56:41.807Z,1292
2017-10-11T07:57:50.642Z,1116
2017-10-11T07:58:59.474Z,1020
2017-10-11T08:00:08.642Z,1148
2017-10-11T08:01:17.480Z,1012
2017-10-11T08:02:26.315Z,928
2017-10-11T08:03:35.151Z,1016
2017-10-11T08:04:43.992Z,976
2017-10-11T08:05:52.823Z,1032
2017-10-11T08:07:01.993Z,1156
2017-10-11T08:08:10.829Z,944
2017-10-11T08:09:19.666Z,792
2017-10-11T08:10:28.506Z,724
2017-10-11T08:11:37.333Z,808
2017-10-11T08:12:46.167Z,792
2017-10-11T08:13:55.006Z,968
2017-10-11T08:15:03.840Z,900
2017-10-11T08:16:12.666Z,852
2017-10-11T08:17:21.505Z,1044
2017-10-11T08:18:30.337Z,1088
2017-10-11T08:19:39.172Z,1024
2017-10-11T08:20:48.008Z,924
2017-10-11T08:21:56.849Z,596
2017-10-11T08:23:05.684Z,768
2017-10-11T08:24:14.519Z,1216
2017-10-11T08:25:23.354Z,1364
2017-10-11T08:26:32.857Z,968
2017-10-11T08:27:41.692Z,1796
2017-10-11T08:28:50.866Z,1288
2017-10-11T08:29:59.704Z,1076
2017-10-11T08:31:08.553Z,1300
2017-10-11T08:32:17.385Z,964
2017-10-11T08:33:26.225Z,1836
2017-10-11T08:34:35.403Z,1240
2017-10-11T08:35:44.241Z,1316
2017-10-11T08:36:53.067Z,1240
2017-10-11T08:38:01.909Z,1020
2017-10-11T08:39:10.740Z,888
2017-10-11T08:40:19.582Z,1408
2017-10-11T08:41:28.416Z,1612
2017-10-11T08:42:37.255Z,1820
2017-10-11T08:43:46.089Z,1640
2017-10-11T08:44:54.926Z,2196
2017-10-11T08:46:03.760Z,1648
2017-10-11T08:47:12.597Z,2864
2017-10-11T08:48:21.434Z,2092
2017-10-11T08:49:30.264Z,1536
2017-10-11T08:50:39.106Z,1852
2017-10-11T08:51:47.941Z,1608
2017-10-11T08:52:56.777Z,1692
2017-10-11T08:54:05.612Z,1524
2017-10-11T08:55:14.443Z,1528
2017-10-11T08:56:23.282Z,1200
2017-10-11T08:57:32.116Z,1132
2017-10-11T08:58:40.951Z,1016
2017-10-11T08:59:49.783Z,1040
2017-10-11T09:00:58.622Z,1040
2017-10-11T09:02:07.463Z,1316
2017-10-11T09:03:16.298Z,1208
2017-10-11T09:04:25.134Z,780
2017-10-11T09:05:34.313Z,1312
2017-10-11T09:06:43.143Z,1000
2017-10-11T09:07:51.980Z,1288
2017-10-11T09:09:00.815Z,1144
2017-10-11T09:10:09.650Z,1124
2017-10-11T09:11:18.482Z,1132
2017-10-11T09:12:27.662Z,1460
2017-10-11T09:13:36.496Z,1632
2017-10-11T09:14:45.335Z,1008
2017-10-11T09:15:54.163Z,1308
2017-10-11T09:17:02.997Z,1480
2017-10-11T09:18:11.838Z,1292
2017-10-11T09:19:20.674Z,1476
2017-10-11T09:20:29.504Z,1288
2017-10-11T09:21:38.345Z,1324
2017-10-11T09:22:47.179Z,1616
2017-10-11T09:23:56.014Z,1696
2017-10-11T09:25:04.847Z,1368
2017-10-11T09:26:13.691Z,1588
2017-10-11T09:27:22.521Z,1624
2017-10-11T09:28:31.354Z,1808
2017-10-11T09:29:40.193Z,1880
2017-10-11T09:30:49.031Z,1852
2017-10-11T09:31:57.873Z,1332
2017-10-11T09:33:06.711Z,992
2017-10-11T09:34:15.547Z,1176
2017-10-11T09:35:24.383Z,1672
2017-10-11T09:36:33.219Z,1700
2017-10-11T09:37:42.055Z,1968
2017-10-11T09:38:50.892Z,1928
2017-10-11T09:39:59.733Z,2232
2017-10-11T09:41:08.900Z,2080
2017-10-11T09:42:17.740Z,1412
2017-10-11T09:43:26.579Z,1148
2017-10-11T09:44:35.756Z,1316
2017-10-11T09:45:44.591Z,1324
2017-10-11T09:46:53.426Z,2092
2017-10-11T09:48:02.257Z,2348
2017-10-11T09:49:11.096Z,1796
2017-10-11T09:50:19.931Z,1652
2017-10-11T09:51:28.766Z,1568
2017-10-11T09:52:37.606Z,1916
2017-10-11T09:53:46.773Z,1600
2017-10-11T09:54:55.977Z,1268
2017-10-11T09:56:04.813Z,1760
2017-10-11T09:57:13.655Z,1856
2017-10-11T09:58:22.488Z,1872
2017-10-11T09:59:31.327Z,2184
2017-10-11T10:00:40.161Z,2224
2017-10-11T10:01:48.997Z,2148
2017-10-11T10:02:57.838Z,2316
2017-10-11T10:04:06.674Z,2188
2017-10-11T10:05:15.514Z,2088
2017-10-11T10:06:24.359Z,1808
2017-10-11T10:07:33.182Z,1724
2017-10-11T10:08:42.017Z,1600
2017-10-11T10:09:50.855Z,1680
2017-10-11T10:10:59.689Z,1732
2017-10-11T10:12:08.526Z,1772
2017-10-11T10:13:17.360Z,1672
2017-10-11T10:14:26.202Z,1236
2017-10-11T10:15:35.037Z,1224
2017-10-11T10:16:43.869Z,1140
2017-10-11T10:17:52.709Z,856
2017-10-11T10:19:01.546Z,680
2017-10-11T10:20:10.385Z,680
2017-10-11T10:21:19.226Z,588
2017-10-11T10:22:28.060Z,612
2017-10-11T10:23:36.890Z,540
2017-10-11T10:24:45.728Z,516
2017-10-11T10:25:54.566Z,548
2017-10-11T10:27:03.406Z,552
2017-10-11T10:28:12.239Z,400
2017-10-11T10:29:21.076Z,536
2017-10-11T10:30:29.904Z,520
2017-10-11T10:31:38.748Z,612
2017-10-11T10:32:47.588Z,948
2017-10-11T10:33:56.758Z,1168
2017-10-11T10:35:05.596Z,1080
2017-10-11T10:36:14.428Z,1060
2017-10-11T10:37:23.264Z,1168
2017-10-11T10:38:32.446Z,1040
2017-10-11T10:39:41.284Z,1128
2017-10-11T10:40:50.116Z,860
2017-10-11T10:41:58.949Z,980
2017-10-11T10:43:07.786Z,952
2017-10-11T10:44:16.622Z,776
2017-10-11T10:45:25.459Z,668
2017-10-11T10:46:34.292Z,660
2017-10-11T10:47:43.129Z,724
2017-10-11T10:48:51.972Z,660
2017-10-11T10:50:00.804Z,768
2017-10-11T10:51:09.647Z,968
2017-10-11T10:52:18.475Z,752
2017-10-11T10:53:27.316Z,976
2017-10-11T10:54:36.149Z,1068
2017-10-11T10:55:45.324Z,996
2017-10-11T10:56:54.160Z,720
2017-10-11T10:58:02.999Z,588
2017-10-11T10:59:11.833Z,744
2017-10-11T11:00:20.670Z,704
2017-10-11T11:01:29.509Z,660
2017-10-11T11:02:38.346Z,816
2017-10-11T11:03:47.180Z,1096
2017-10-11T11:04:56.018Z,860
2017-10-11T11:06:04.852Z,908
2017-10-11T11:07:13.690Z,796
2017-10-11T11:08:22.528Z,944
2017-10-11T11:09:31.364Z,1048
2017-10-11T11:10:40.193Z,1028
2017-10-11T11:11:49.373Z,960
2017-10-11T11:12:58.206Z,784
2017-10-11T11:14:07.040Z,996
2017-10-11T11:15:15.878Z,860
2017-10-11T11:16:24.713Z,692
2017-10-11T11:17:33.550Z,864
2017-10-11T11:18:42.381Z,980
2017-10-11T11:19:51.219Z,1372
2017-10-11T11:21:00.052Z,1372
2017-10-11T11:22:08.889Z,1444
2017-10-11T11:23:17.727Z,1272
2017-10-11T11:24:26.563Z,1260
2017-10-11T11:25:35.402Z,1160
2017-10-11T11:26:44.235Z,1356
2017-10-11T11:27:53.069Z,1220
2017-10-11T11:29:01.904Z,1480
2017-10-11T11:30:10.741Z,1368
2017-10-11T11:31:19.577Z,1296
2017-10-11T11:32:28.406Z,1196
2017-10-11T11:33:37.252Z,1124
2017-10-11T11:34:46.089Z,1196
2017-10-11T11:35:54.922Z,1116
2017-10-11T11:37:03.753Z,956
2017-10-11T11:38:12.586Z,924
2017-10-11T11:39:21.415Z,728
2017-10-11T11:40:30.252Z,812
2017-10-11T11:41:39.444Z,720
2017-10-11T11:42:48.265Z,888
2017-10-11T11:43:57.102Z,932
2017-10-11T11:45:05.935Z,808
2017-10-11T11:46:14.773Z,1084
2017-10-11T11:47:23.610Z,1004
2017-10-11T11:48:32.445Z,1316
2017-10-11T11:49:41.278Z,1340
2017-10-11T11:50:50.119Z,1484
2017-10-11T11:51:58.953Z,1208
2017-10-11T11:53:07.790Z,1224
2017-10-11T11:54:16.627Z,1864
2017-10-11T11:55:25.463Z,1772
2017-10-11T11:56:34.640Z,1592
2017-10-11T11:57:43.473Z,1500
2017-10-11T11:58:52.313Z,1624
2017-10-11T12:00:01.138Z,1748
2017-10-11T12:01:09.976Z,1944
2017-10-11T12:02:18.817Z,1932
2017-10-11T12:03:27.650Z,1840
2017-10-11T12:04:36.488Z,2020
2017-10-11T12:05:45.319Z,2104
2017-10-11T12:06:54.156Z,2088
2017-10-11T12:08:03.003Z,1996
2017-10-11T12:09:11.830Z,2164
2017-10-11T12:10:20.662Z,2120
2017-10-11T12:11:29.499Z,2052
2017-10-11T12:12:38.330Z,1928
2017-10-11T12:13:47.161Z,1888
2017-10-11T12:14:56.009Z,1848
2017-10-11T12:16:04.841Z,1608
2017-10-11T12:17:13.677Z,1372
2017-10-11T12:18:22.513Z,1024
2017-10-11T12:19:31.688Z,876
2017-10-11T12:20:40.524Z,888
2017-10-11T12:21:49.708Z,1016
2017-10-11T12:22:58.547Z,972
2017-10-11T12:24:07.382Z,952
2017-10-11T12:25:16.218Z,888
2017-10-11T12:26:25.053Z,808
2017-10-11T12:27:33.887Z,812
2017-10-11T12:28:42.724Z,968
2017-10-11T12:29:51.559Z,1360
2017-10-11T12:31:00.397Z,1736
2017-10-11T12:32:09.564Z,1460
2017-10-11T12:33:18.411Z,1460
2017-10-11T12:34:27.245Z,1620
2017-10-11T12:35:36.083Z,1564
2017-10-11T12:36:44.920Z,1512
2017-10-11T12:37:54.098Z,1444
2017-10-11T12:39:02.934Z,1452
2017-10-11T12:40:11.773Z,1340
2017-10-11T12:41:20.609Z,1376
2017-10-11T12:42:29.778Z,1456
2017-10-11T12:43:38.619Z,1604
2017-10-11T12:44:47.449Z,1480
2017-10-11T12:45:56.294Z,1440
2017-10-11T12:47:05.132Z,1480
2017-10-11T12:48:13.970Z,1576
2017-10-11T12:49:23.135Z,1588
2017-10-11T12:50:31.966Z,1336
2017-10-11T12:51:40.798Z,1288
2017-10-11T12:52:49.637Z,1408
2017-10-11T12:53:58.495Z,1576
2017-10-11T12:55:07.308Z,1396
2017-10-11T12:56:16.475Z,1320
2017-10-11T12:57:25.304Z,1484
2017-10-11T12:58:34.146Z,1660
2017-10-11T12:59:42.985Z,1540
2017-10-11T13:00:51.818Z,1496
2017-10-11T13:02:00.655Z,1456
2017-10-11T13:03:09.491Z,1304
2017-10-11T13:04:18.326Z,1164
2017-10-11T13:05:27.163Z,976
2017-10-11T13:06:35.999Z,1200
2017-10-11T13:07:44.831Z,1332
2017-10-11T13:08:53.665Z,1480
2017-10-11T13:10:02.503Z,1548
2017-10-11T13:11:11.346Z,1528
2017-10-11T13:12:20.181Z,1400
2017-10-11T13:13:29.353Z,1432
2017-10-11T13:14:38.194Z,1384
2017-10-11T13:15:47.368Z,1384
2017-10-11T13:16:56.209Z,1444
2017-10-11T13:18:05.040Z,1364
2017-10-11T13:19:13.873Z,1284
2017-10-11T13:20:22.711Z,1208
2017-10-11T13:21:31.547Z,1212
2017-10-11T13:22:40.388Z,1272
2017-10-11T13:23:49.223Z,1328
2017-10-11T13:24:58.060Z,1332
2017-10-11T13:26:06.894Z,1352
2017-10-11T13:27:15.732Z,1340
2017-10-11T13:28:24.571Z,1296
2017-10-11T13:29:33.738Z,1204
2017-10-11T13:30:42.572Z,1164
2017-10-11T13:31:51.406Z,1208
2017-10-11T13:33:00.246Z,1112
2017-10-11T13:34:09.083Z,1108
2017-10-11T13:35:17.919Z,1064
2017-10-11T13:36:26.752Z,1156
2017-10-11T13:37:35.593Z,1004
2017-10-11T13:38:44.426Z,832
2017-10-11T13:39:53.262Z,736
2017-10-11T13:41:02.105Z,676
2017-10-11T13:42:11.269Z,704
2017-10-11T13:43:20.104Z,632
2017-10-11T13:44:28.948Z,608
2017-10-11T13:45:37.788Z,480
2017-10-11T13:46:46.619Z,520
2017-10-11T13:47:55.459Z,504
2017-10-11T13:49:04.297Z,560
2017-10-11T13:50:13.129Z,564
2017-10-11T13:51:21.968Z,644
2017-10-11T13:52:30.801Z,616
2017-10-11T13:53:39.641Z,712
2017-10-11T13:54:48.475Z,716
2017-10-11T13:55:57.312Z,660
2017-10-11T13:57:06.146Z,720
2017-10-11T13:58:14.983Z,736
2017-10-11T13:59:23.818Z,548
2017-10-11T14:00:32.653Z,532
2017-10-11T14:01:41.492Z,552
2017-10-11T14:02:50.328Z,476
2017-10-11T14:03:59.164Z,484
2017-10-11T14:05:08.001Z,368
2017-10-11T14:06:16.842Z,316
2017-10-11T14:07:25.678Z,332
2017-10-11T14:08:34.513Z,228
2017-10-11T14:09:43.351Z,324
2017-10-11T14:10:52.177Z,312
2017-10-11T14:12:01.016Z,280
2017-10-11T14:13:09.852Z,368
2017-10-11T14:14:18.689Z,288
2017-10-11T14:15:27.532Z,260
2017-10-11T14:16:36.368Z,240
2017-10-11T14:17:45.203Z,396
2017-10-11T14:18:54.048Z,396
2017-10-11T14:20:02.880Z,468
2017-10-11T14:21:11.708Z,448
2017-10-11T14:22:20.544Z,408
2017-10-11T14:23:29.380Z,360
2017-10-11T14:24:38.221Z,452
2017-10-11T14:25:47.059Z,576
2017-10-11T14:26:55.895Z,608
2017-10-11T14:28:04.730Z,516
2017-10-11T14:29:13.565Z,552
2017-10-11T14:30:22.402Z,504
2017-10-11T14:31:31.235Z,388
2017-10-11T14:32:40.069Z,444
2017-10-11T14:33:48.909Z,404
2017-10-11T14:34:57.742Z,376
2017-10-11T14:37:15.443Z,448
2017-10-11T14:38:24.279Z,464
2017-10-11T14:39:33.113Z,452
2017-10-11T14:40:41.955Z,420
2017-10-11T14:41:50.789Z,340
2017-10-11T14:42:59.624Z,360
2017-10-11T14:44:08.459Z,364
2017-10-11T14:45:17.296Z,380
2017-10-11T14:46:26.130Z,420
2017-10-11T14:47:34.966Z,436
2017-10-11T14:48:43.801Z,428
2017-10-11T14:49:52.640Z,424
2017-10-11T14:51:01.483Z,400
2017-10-11T14:52:10.310Z,384
2017-10-11T14:53:19.146Z,392
2017-10-11T14:54:27.981Z,404
2017-10-11T14:55:36.816Z,384
2017-10-11T14:56:45.656Z,376
2017-10-11T14:57:54.483Z,352
2017-10-11T14:59:03.322Z,348
2017-10-11T15:00:12.161Z,340
2017-10-11T15:01:20.994Z,312
2017-10-11T15:02:29.828Z,312
2017-10-11T15:03:38.670Z,320
2017-10-11T15:04:47.515Z,296
2017-10-11T15:05:56.344Z,280
2017-10-11T15:07:05.183Z,260
2017-10-11T15:08:14.017Z,252
2017-10-11T15:09:22.853Z,208
2017-10-11T15:10:31.695Z,200
2017-10-11T15:11:40.866Z,172
2017-10-11T15:12:49.695Z,192
2017-10-11T15:13:58.538Z,212
2017-10-11T15:15:07.368Z,212
2017-10-11T15:16:16.218Z,148
2017-10-11T15:17:25.048Z,156
2017-10-11T15:18:33.886Z,152
2017-10-11T15:19:42.717Z,172
2017-10-11T15:20:51.553Z,188
2017-10-11T15:22:00.388Z,176
2017-10-11T15:23:09.232Z,180
2017-10-11T15:24:18.069Z,176
2017-10-11T15:25:26.898Z,208
2017-10-11T15:26:35.734Z,164
2017-10-11T15:27:44.579Z,204
2017-10-11T15:28:53.407Z,220
2017-10-11T15:30:02.245Z,172
2017-10-11T15:31:11.082Z,168
2017-10-11T15:32:19.919Z,184
2017-10-11T15:33:28.754Z,168
2017-10-11T15:34:37.931Z,168
2017-10-11T15:35:46.765Z,172
2017-10-11T15:36:55.603Z,172
2017-10-11T15:38:04.437Z,160
2017-10-11T15:39:13.273Z,152
2017-10-11T15:40:22.107Z,148
2017-10-11T15:41:30.949Z,140
2017-10-11T15:42:40.150Z,132
2017-10-11T15:43:48.980Z,140
2017-10-11T15:44:57.821Z,140
2017-10-11T15:46:06.650Z,136
2017-10-11T15:47:15.490Z,148
2017-10-11T15:48:24.326Z,140
2017-10-11T15:49:33.167Z,136
2017-10-11T15:50:42.340Z,120
2017-10-11T15:51:51.174Z,112
2017-10-11T15:53:00.010Z,104
2017-10-11T15:54:08.843Z,96
2017-10-11T15:55:17.685Z,84
2017-10-11T15:56:26.522Z,68
2017-10-11T15:57:35.687Z,52
2017-10-11T15:58:44.529Z,48
2017-10-11T15:59:53.363Z,40
2017-10-11T16:01:02.203Z,32
2017-10-11T16:02:11.040Z,28
2017-10-11T16:03:19.873Z,24